Allegheny, Pennsylvania
Current Conditions -  °F | °C
As of 1:53 AM on Thursday 23 Oct 2014 (Local Time) from KAGC Reporting Station
Overcast Overcast  
Wind Chill: 41°   Ceiling: 2300
Heat Index: 45°   Visibility: 10mi
Dew Point: 38°   Wind: 8mph
Humidity: 76%   Direction: 310°NW
Pressure: 30.12"   Gusts: NA
Location:  40.4725°N, 80.0082°W
Report Text: KAGC 230553Z AUTO 31007KT 10SM OVC023 07/03 A3012 RMK AO2 SLP208 T00720033 10083 20072 56012 TSNO
Loading
Personal Weather Stations






























Interactive Weather Map
Tropical Storm Tracking
New forecast layout! Learn more

10-Day Weather Forecast

Advertisements
Track Severe Weather on mobile